createdAt,value
2023-05-04T00:00:07.559Z,6.75
2023-05-04T00:02:53.152Z,6.70
2023-05-04T00:05:38.655Z,6.45
2023-05-04T00:08:24.052Z,7.00
2023-05-04T00:11:09.657Z,7.32
2023-05-04T00:13:54.750Z,6.30
2023-05-04T00:16:40.272Z,7.63
2023-05-04T00:19:25.875Z,7.50
2023-05-04T00:22:11.369Z,7.35
2023-05-04T00:24:56.623Z,7.20
2023-05-04T00:27:42.164Z,7.72
2023-05-04T00:30:27.487Z,7.70
2023-05-04T00:33:13.029Z,7.80
2023-05-04T00:35:58.315Z,7.75
2023-05-04T00:38:51.322Z,7.85
2023-05-04T00:41:36.925Z,8.07
2023-05-04T00:44:23.783Z,7.63
2023-05-04T00:47:09.548Z,7.25
2023-05-04T00:49:55.156Z,7.20
2023-05-04T00:52:43.624Z,7.78
2023-05-04T00:55:29.513Z,7.78
2023-05-04T00:58:15.049Z,7.93
2023-05-04T01:01:01.026Z,7.80
2023-05-04T01:03:46.416Z,7.28
2023-05-04T01:06:40.770Z,7.30
2023-05-04T01:09:37.851Z,6.80
2023-05-04T01:12:42.733Z,6.95
2023-05-04T01:15:29.580Z,7.65
2023-05-04T01:18:16.367Z,7.55
2023-05-04T01:21:02.026Z,7.00
2023-05-04T01:23:48.936Z,7.00
2023-05-04T01:26:41.843Z,7.35
2023-05-04T01:32:36.495Z,7.60
2023-05-04T01:35:22.197Z,7.35
2023-05-04T01:38:07.541Z,6.40
2023-05-04T01:40:53.185Z,7.28
2023-05-04T01:43:39.424Z,6.95
2023-05-04T01:46:25.213Z,6.90
2023-05-04T01:49:10.332Z,7.28
2023-05-04T01:51:55.822Z,6.93
2023-05-04T01:54:43.330Z,6.60
2023-05-04T01:57:29.004Z,6.45
2023-05-04T02:00:15.655Z,6.72
2023-05-04T02:03:00.867Z,6.68
2023-05-04T02:05:46.861Z,6.03
2023-05-04T02:08:34.618Z,6.60
2023-05-04T02:11:20.992Z,6.07
2023-05-04T02:14:06.371Z,6.68
2023-05-04T02:16:51.854Z,6.43
2023-05-04T02:19:37.140Z,6.85
2023-05-04T02:22:22.452Z,6.47
2023-05-04T02:25:08.409Z,6.90
2023-05-04T02:27:55.678Z,6.50
2023-05-04T02:30:41.802Z,6.80
2023-05-04T02:33:27.330Z,6.13
2023-05-04T02:36:12.745Z,6.90
2023-05-04T02:39:00.324Z,6.80
2023-05-04T02:41:45.880Z,6.40
2023-05-04T02:44:31.388Z,6.93
2023-05-04T02:47:16.806Z,7.10
2023-05-04T02:50:01.926Z,7.25
2023-05-04T02:52:47.447Z,6.97
2023-05-04T02:55:32.882Z,6.97
2023-05-04T02:58:18.286Z,7.10
2023-05-04T03:01:03.676Z,7.00
2023-05-04T03:03:48.969Z,7.30
2023-05-04T03:06:34.214Z,6.88
2023-05-04T03:09:19.747Z,7.35
2023-05-04T03:12:05.865Z,6.88
2023-05-04T03:14:51.433Z,7.35
2023-05-04T03:17:37.191Z,7.50
2023-05-04T03:20:22.831Z,7.22
2023-05-04T03:23:08.156Z,7.53
2023-05-04T03:25:54.204Z,8.15
2023-05-04T03:28:39.567Z,7.50
2023-05-04T03:31:25.231Z,8.13
2023-05-04T03:34:14.687Z,7.22
2023-05-04T03:37:00.610Z,8.38
2023-05-04T03:39:45.566Z,7.63
2023-05-04T03:42:30.944Z,7.30
2023-05-04T03:45:16.476Z,7.32
2023-05-04T03:48:02.078Z,7.53
2023-05-04T03:50:47.606Z,7.88
2023-05-04T03:53:35.476Z,7.82
2023-05-04T03:56:21.882Z,7.57
2023-05-04T03:59:07.836Z,7.65
2023-05-04T04:01:53.215Z,7.75
2023-05-04T04:04:38.760Z,8.75
2023-05-04T04:07:24.047Z,8.15
2023-05-04T04:10:10.437Z,8.43
2023-05-04T04:12:55.637Z,7.57
2023-05-04T04:15:42.729Z,8.27
2023-05-04T04:18:28.137Z,7.80
2023-05-04T04:21:13.694Z,8.77
2023-05-04T04:23:59.060Z,8.23
2023-05-04T04:26:44.535Z,8.32
2023-05-04T04:29:29.821Z,8.48
2023-05-04T04:32:15.532Z,8.95
2023-05-04T04:35:00.861Z,8.80
2023-05-04T04:37:46.060Z,8.38
2023-05-04T04:40:31.243Z,8.63
2023-05-04T04:43:16.684Z,7.88
2023-05-04T04:46:04.149Z,8.70
2023-05-04T04:48:50.095Z,8.18
2023-05-04T04:51:35.931Z,8.55
2023-05-04T04:54:21.376Z,8.38
2023-05-04T04:57:06.507Z,7.60
2023-05-04T04:59:53.213Z,8.30
2023-05-04T05:02:39.014Z,8.70
2023-05-04T05:05:24.588Z,8.52
2023-05-04T05:08:10.004Z,9.27
2023-05-04T05:10:56.465Z,8.95
2023-05-04T05:13:42.369Z,8.98
2023-05-04T05:16:27.998Z,8.95
2023-05-04T05:19:13.447Z,8.77
2023-05-04T05:21:58.757Z,9.13
2023-05-04T05:24:44.076Z,8.55
2023-05-04T05:27:29.466Z,9.43
2023-05-04T05:30:15.053Z,8.88
2023-05-04T05:33:00.627Z,9.43
2023-05-04T05:35:46.037Z,8.65
2023-05-04T05:38:31.940Z,8.55
2023-05-04T05:41:17.169Z,8.52
2023-05-04T05:44:02.835Z,7.90
2023-05-04T05:46:48.498Z,9.00
2023-05-04T05:49:35.011Z,9.02
2023-05-04T05:52:19.950Z,8.68
2023-05-04T05:55:05.843Z,8.48
2023-05-04T05:57:50.982Z,8.25
2023-05-04T06:00:36.411Z,8.45
2023-05-04T06:03:21.869Z,9.13
2023-05-04T06:06:07.777Z,8.60
2023-05-04T06:08:53.206Z,8.00
2023-05-04T06:11:38.601Z,8.82
2023-05-04T06:14:23.874Z,8.52
2023-05-04T06:17:09.843Z,7.30
2023-05-04T06:19:55.133Z,7.63
2023-05-04T06:22:41.128Z,8.43
2023-05-04T06:25:26.251Z,8.38
2023-05-04T06:28:11.682Z,7.30
2023-05-04T06:30:57.323Z,8.10
2023-05-04T06:33:42.721Z,7.57
2023-05-04T06:36:28.069Z,7.47
2023-05-04T06:39:13.746Z,8.15
2023-05-04T06:41:59.493Z,7.75
2023-05-04T06:44:46.144Z,7.78
2023-05-04T06:47:31.540Z,8.00
2023-05-04T06:50:17.159Z,6.75
2023-05-04T06:53:04.326Z,7.20
2023-05-04T06:55:49.439Z,7.82
2023-05-04T06:58:34.852Z,7.50
2023-05-04T07:01:20.272Z,7.70
2023-05-04T07:04:05.789Z,7.07
2023-05-04T07:06:51.501Z,6.88
2023-05-04T07:09:36.591Z,7.63
2023-05-04T07:12:22.003Z,7.13
2023-05-04T07:15:08.897Z,6.75
2023-05-04T07:17:54.150Z,6.82
2023-05-04T07:20:42.262Z,6.93
2023-05-04T07:23:27.662Z,6.20
2023-05-04T07:26:12.975Z,7.47
2023-05-04T07:28:58.454Z,7.03
2023-05-04T07:31:43.743Z,6.47
2023-05-04T07:34:41.698Z,6.75
2023-05-04T07:37:30.034Z,6.55
2023-05-04T07:40:15.614Z,6.43
2023-05-04T07:43:00.741Z,6.75
2023-05-04T07:45:46.455Z,6.82
2023-05-04T07:48:34.439Z,7.22
2023-05-04T07:51:19.983Z,6.65
2023-05-04T07:54:05.756Z,6.32
2023-05-04T07:56:51.219Z,7.45
2023-05-04T07:59:36.426Z,6.55
2023-05-04T08:02:22.059Z,7.00
2023-05-04T08:05:07.685Z,7.13
2023-05-04T08:07:53.187Z,8.13
2023-05-04T08:10:39.041Z,6.90
2023-05-04T08:13:24.512Z,8.43
2023-05-04T08:16:10.770Z,7.00
2023-05-04T08:18:57.168Z,7.50
2023-05-04T08:21:42.362Z,7.47
2023-05-04T08:24:27.727Z,6.60
2023-05-04T08:27:14.522Z,8.05
2023-05-04T08:30:00.047Z,7.20
2023-05-04T08:32:45.324Z,8.02
2023-05-04T08:35:30.665Z,7.53
2023-05-04T08:38:16.044Z,7.30
2023-05-04T08:41:03.640Z,7.82
2023-05-04T08:43:49.783Z,7.30
2023-05-04T08:46:35.412Z,7.20
2023-05-04T08:49:21.677Z,6.93
2023-05-04T08:52:08.661Z,7.50
2023-05-04T08:54:55.682Z,7.15
2023-05-04T08:57:43.698Z,6.72
2023-05-04T09:00:30.388Z,7.43
2023-05-04T09:03:16.628Z,7.47
2023-05-04T09:06:02.910Z,8.27
2023-05-04T09:08:48.442Z,7.70
2023-05-04T09:11:33.772Z,8.40
2023-05-04T09:14:19.116Z,8.90
2023-05-04T09:17:26.015Z,7.18
2023-05-04T09:20:12.246Z,8.05
2023-05-04T09:23:07.746Z,7.80
2023-05-04T09:25:54.305Z,8.07
2023-05-04T09:28:39.778Z,7.43
2023-05-04T09:31:25.310Z,7.60
2023-05-04T09:34:10.577Z,8.45
2023-05-04T09:37:01.480Z,8.98
2023-05-04T09:39:52.384Z,7.10
2023-05-04T09:42:37.931Z,7.65
2023-05-04T09:45:23.240Z,8.10
2023-05-04T09:48:20.170Z,8.48
2023-05-04T09:51:07.181Z,8.68
2023-05-04T09:53:53.806Z,8.63
2023-05-04T09:56:47.919Z,7.72
2023-05-04T09:59:33.970Z,7.65
2023-05-04T10:02:23.102Z,7.57
2023-05-04T10:05:09.412Z,7.80
2023-05-04T10:07:55.848Z,8.45
2023-05-04T10:10:43.226Z,8.48
2023-05-04T10:13:28.366Z,8.00
2023-05-04T10:16:16.889Z,8.00
2023-05-04T10:19:23.624Z,8.10
2023-05-04T10:22:32.410Z,7.93
2023-05-04T10:26:02.804Z,8.70
2023-05-04T10:28:55.534Z,8.77
2023-05-04T10:31:42.656Z,7.68
2023-05-04T10:34:37.305Z,8.75
2023-05-04T10:37:22.545Z,9.32
2023-05-04T10:40:08.724Z,8.93
2023-05-04T10:42:54.013Z,8.68
2023-05-04T10:45:42.772Z,8.15
2023-05-04T10:48:35.735Z,8.63
2023-05-04T10:51:23.061Z,8.02
2023-05-04T10:54:17.562Z,7.63
2023-05-04T10:57:11.237Z,8.20
2023-05-04T10:59:58.286Z,8.45
2023-05-04T11:02:44.179Z,7.57
2023-05-04T11:05:43.370Z,7.60
2023-05-04T11:08:29.275Z,8.68
2023-05-04T11:11:14.870Z,7.90
2023-05-04T11:14:00.697Z,8.43
2023-05-04T11:16:46.476Z,7.47
2023-05-04T11:19:32.234Z,8.40
2023-05-04T11:22:18.471Z,7.53
2023-05-04T11:25:05.189Z,7.35
2023-05-04T11:27:51.199Z,7.90
2023-05-04T11:30:36.509Z,7.78
2023-05-04T11:33:21.913Z,6.60
2023-05-04T11:36:07.889Z,7.97
2023-05-04T11:38:56.625Z,7.43
2023-05-04T11:41:43.517Z,6.60
2023-05-04T11:44:29.968Z,7.85
2023-05-04T11:47:16.042Z,6.38
2023-05-04T11:50:01.606Z,6.57
2023-05-04T11:52:47.802Z,6.15
2023-05-04T11:55:33.019Z,7.30
2023-05-04T11:58:25.049Z,7.57
2023-05-04T12:01:10.448Z,6.88
2023-05-04T12:03:56.016Z,7.60
2023-05-04T12:06:41.707Z,6.88
2023-05-04T12:09:26.889Z,7.07
2023-05-04T12:12:12.142Z,6.57
2023-05-04T12:14:57.587Z,6.25
2023-05-04T12:17:44.192Z,7.47
2023-05-04T12:20:30.905Z,6.50
2023-05-04T12:23:16.292Z,6.28
2023-05-04T12:26:01.685Z,6.95
2023-05-04T12:28:47.724Z,6.13
2023-05-04T12:31:33.182Z,8.45
2023-05-04T12:34:18.537Z,7.60
2023-05-04T12:37:04.046Z,6.78
2023-05-04T12:39:49.327Z,5.70
2023-05-04T12:42:34.862Z,6.55
2023-05-04T12:45:22.426Z,6.78
2023-05-04T12:48:08.043Z,5.78
2023-05-04T12:50:53.792Z,5.70
2023-05-04T12:53:40.091Z,5.55
2023-05-04T12:56:25.717Z,5.50
2023-05-04T12:59:11.029Z,5.45
2023-05-04T13:01:56.458Z,5.80
2023-05-04T13:04:42.147Z,5.28
2023-05-04T13:07:27.540Z,4.75
2023-05-04T13:10:13.003Z,5.18
2023-05-04T13:12:58.689Z,5.10
2023-05-04T13:15:44.973Z,5.60
2023-05-04T13:18:30.570Z,4.95
2023-05-04T13:21:15.919Z,4.72
2023-05-04T13:24:01.592Z,6.03
2023-05-04T13:26:46.864Z,5.40
2023-05-04T13:29:32.469Z,4.68
2023-05-04T13:32:18.046Z,4.53
2023-05-04T13:35:07.004Z,4.60
2023-05-04T13:37:52.475Z,5.60
2023-05-04T13:40:37.537Z,5.00
2023-05-04T13:43:22.855Z,4.80
2023-05-04T13:46:08.431Z,5.43
2023-05-04T13:48:55.166Z,5.75
2023-05-04T13:51:43.177Z,5.50
2023-05-04T13:54:28.382Z,4.82
2023-05-04T13:57:13.842Z,4.40
2023-05-04T14:00:07.122Z,4.65
2023-05-04T14:02:59.259Z,5.20
2023-05-04T14:05:45.154Z,5.72
2023-05-04T14:08:30.600Z,5.75
2023-05-04T14:11:15.811Z,5.55
2023-05-04T14:14:01.494Z,5.30
2023-05-04T14:16:47.212Z,5.43
2023-05-04T14:19:32.524Z,5.28
2023-05-04T14:22:17.823Z,5.13
2023-05-04T14:25:03.483Z,5.10
2023-05-04T14:27:48.971Z,5.32
2023-05-04T14:30:34.955Z,5.30
2023-05-04T14:33:20.894Z,5.00
2023-05-04T14:36:06.666Z,5.13
2023-05-04T14:38:51.949Z,4.78
2023-05-04T14:41:37.803Z,5.40
2023-05-04T14:44:24.663Z,5.20
2023-05-04T14:47:10.142Z,5.25
2023-05-04T14:49:55.691Z,4.90
2023-05-04T14:52:41.010Z,4.70
2023-05-04T14:55:26.622Z,4.68
2023-05-04T14:58:12.439Z,4.07
2023-05-04T15:00:57.999Z,4.43
2023-05-04T15:03:43.265Z,5.50
2023-05-04T15:06:32.767Z,4.90
2023-05-04T15:09:18.057Z,4.32
2023-05-04T15:12:03.426Z,4.45
2023-05-04T15:14:48.897Z,4.05
2023-05-04T15:17:34.655Z,4.30
2023-05-04T15:20:20.022Z,4.28
2023-05-04T15:23:10.858Z,4.38
2023-05-04T15:25:56.166Z,4.57
2023-05-04T15:28:41.615Z,4.10
2023-05-04T15:31:27.265Z,4.38
2023-05-04T15:34:12.448Z,4.45
2023-05-04T15:36:57.971Z,4.25
2023-05-04T15:39:43.624Z,4.57
2023-05-04T15:42:28.932Z,3.90
2023-05-04T15:45:14.352Z,4.18
2023-05-04T15:48:00.521Z,4.10
2023-05-04T15:50:45.976Z,3.40
2023-05-04T15:53:31.037Z,3.20
2023-05-04T15:56:16.745Z,3.97
2023-05-04T15:59:02.096Z,3.92
2023-05-04T16:01:47.803Z,3.40
2023-05-04T16:04:33.230Z,3.80
2023-05-04T16:07:18.487Z,3.85
2023-05-04T16:10:05.109Z,4.28
2023-05-04T16:12:50.759Z,4.38
2023-05-04T16:15:36.780Z,4.07
2023-05-04T16:18:22.218Z,5.05
2023-05-04T16:21:08.741Z,4.85
2023-05-04T16:23:54.999Z,4.40
2023-05-04T16:26:40.721Z,4.50
2023-05-04T16:29:26.195Z,5.00
2023-05-04T16:32:11.683Z,5.03
2023-05-04T16:34:57.146Z,4.60
2023-05-04T16:37:42.666Z,4.60
2023-05-04T16:40:28.305Z,5.00
2023-05-04T16:43:13.502Z,4.40
2023-05-04T16:45:58.998Z,4.68
2023-05-04T16:48:44.419Z,5.97
2023-05-04T16:51:29.874Z,5.13
2023-05-04T16:54:16.678Z,4.90
2023-05-04T16:57:02.106Z,4.90
2023-05-04T16:59:47.605Z,4.80
2023-05-04T17:02:32.940Z,5.50
2023-05-04T17:05:19.523Z,5.53
2023-05-04T17:08:05.078Z,5.72
2023-05-04T17:10:50.304Z,5.18
2023-05-04T17:13:35.818Z,6.57
2023-05-04T17:16:21.269Z,6.10
2023-05-04T17:19:08.271Z,6.00
2023-05-04T17:21:56.551Z,6.93
2023-05-04T17:24:44.007Z,6.10
2023-05-04T17:27:31.008Z,5.88
2023-05-04T17:30:16.772Z,7.32
2023-05-04T17:33:02.276Z,6.05
2023-05-04T17:35:49.365Z,6.80
2023-05-04T17:38:34.761Z,6.45
2023-05-04T17:41:20.132Z,6.53
2023-05-04T17:44:05.726Z,6.00
2023-05-04T17:46:51.528Z,5.18
2023-05-04T17:49:37.017Z,5.10
2023-05-04T17:52:22.568Z,5.70
2023-05-04T17:55:08.414Z,5.57
2023-05-04T17:57:54.718Z,4.88
2023-05-04T18:00:39.997Z,6.20
2023-05-04T18:03:25.601Z,6.43
2023-05-04T18:06:11.147Z,5.55
2023-05-04T18:08:56.733Z,4.28
2023-05-04T18:11:41.889Z,5.78
2023-05-04T18:14:27.381Z,4.72
2023-05-04T18:17:13.117Z,5.03
2023-05-04T18:19:58.234Z,4.30
2023-05-04T18:22:43.702Z,4.65
2023-05-04T18:25:29.427Z,4.88
2023-05-04T18:28:14.690Z,5.13
2023-05-04T18:31:00.357Z,5.63
2023-05-04T18:33:45.833Z,5.68
2023-05-04T18:36:32.527Z,6.10
2023-05-04T18:39:18.802Z,5.10
2023-05-04T18:42:03.920Z,5.45
2023-05-04T18:44:51.665Z,5.03
2023-05-04T18:47:37.207Z,5.53
2023-05-04T18:50:22.801Z,5.32
2023-05-04T18:53:08.371Z,6.15
2023-05-04T18:56:03.688Z,5.97
2023-05-04T18:58:49.461Z,5.53
2023-05-04T19:01:35.037Z,5.88
2023-05-04T19:04:20.803Z,4.90
2023-05-04T19:07:06.146Z,5.50
2023-05-04T19:09:51.671Z,6.88
2023-05-04T19:12:37.114Z,7.00
2023-05-04T19:15:23.788Z,6.80
2023-05-04T19:18:09.249Z,5.63
2023-05-04T19:20:54.723Z,5.68
2023-05-04T19:23:40.114Z,5.97
2023-05-04T19:26:26.098Z,5.88
2023-05-04T19:29:11.660Z,5.50
2023-05-04T19:31:57.367Z,5.28
2023-05-04T19:34:44.882Z,5.20
2023-05-04T19:37:30.710Z,5.63
2023-05-04T19:40:16.119Z,5.60
2023-05-04T19:43:02.110Z,6.03
2023-05-04T19:45:48.059Z,5.45
2023-05-04T19:48:33.950Z,6.30
2023-05-04T19:51:19.412Z,5.50
2023-05-04T19:54:05.221Z,4.65
2023-05-04T19:56:50.898Z,4.63
2023-05-04T19:59:36.313Z,4.97
2023-05-04T20:02:21.718Z,5.25
2023-05-04T20:05:07.258Z,4.38
2023-05-04T20:07:52.827Z,4.28
2023-05-04T20:10:38.343Z,5.63
2023-05-04T20:13:25.486Z,4.82
2023-05-04T20:16:10.870Z,5.03
2023-05-04T20:18:56.322Z,5.10
2023-05-04T20:21:41.845Z,6.03
2023-05-04T20:24:27.280Z,5.07
2023-05-04T20:27:12.989Z,5.55
2023-05-04T20:29:58.874Z,4.95
2023-05-04T20:32:44.287Z,4.82
2023-05-04T20:35:29.750Z,4.28
2023-05-04T20:38:15.457Z,4.80
2023-05-04T20:41:09.995Z,4.18
2023-05-04T20:43:55.419Z,5.68
2023-05-04T20:46:41.085Z,4.85
2023-05-04T20:49:26.510Z,5.38
2023-05-04T20:52:11.850Z,5.18
2023-05-04T20:54:57.410Z,6.20
2023-05-04T20:57:42.702Z,5.32
2023-05-04T21:00:28.033Z,6.38
2023-05-04T21:03:13.486Z,5.20
2023-05-04T21:05:58.971Z,6.40
2023-05-04T21:08:44.487Z,5.80
2023-05-04T21:11:30.053Z,5.85
2023-05-04T21:14:15.424Z,6.90
2023-05-04T21:17:00.923Z,6.32
2023-05-04T21:19:46.597Z,5.80
2023-05-04T21:22:32.291Z,5.55
2023-05-04T21:25:17.579Z,5.40
2023-05-04T21:28:03.276Z,6.40
2023-05-04T21:30:48.667Z,7.60
2023-05-04T21:33:35.615Z,5.70
2023-05-04T21:36:21.793Z,7.20
2023-05-04T21:39:06.912Z,8.02
2023-05-04T21:41:52.245Z,7.40
2023-05-04T21:44:37.891Z,6.95
2023-05-04T21:47:23.801Z,7.25
2023-05-04T21:50:09.824Z,8.18
2023-05-04T21:52:55.199Z,7.95
2023-05-04T21:55:40.631Z,7.60
2023-05-04T21:58:25.926Z,6.88
2023-05-04T22:01:16.977Z,6.47
2023-05-04T22:04:05.143Z,7.00
2023-05-04T22:06:53.337Z,7.40
2023-05-04T22:09:38.882Z,7.07
2023-05-04T22:12:24.201Z,6.90
2023-05-04T22:15:10.347Z,7.82
2023-05-04T22:17:55.638Z,7.38
2023-05-04T22:20:42.407Z,7.53
2023-05-04T22:23:27.991Z,6.60
2023-05-04T22:26:13.508Z,8.25
2023-05-04T22:28:58.990Z,7.20
2023-05-04T22:31:44.217Z,7.15
2023-05-04T22:34:29.690Z,7.35
2023-05-04T22:37:15.128Z,6.60
2023-05-04T22:40:06.115Z,5.20
2023-05-04T22:42:51.800Z,5.90
2023-05-04T22:45:38.293Z,6.97
2023-05-04T22:48:23.859Z,7.15
2023-05-04T22:51:09.149Z,8.00
2023-05-04T22:53:54.482Z,7.20
2023-05-04T22:56:40.344Z,6.18
2023-05-04T22:59:25.887Z,6.35
2023-05-04T23:02:12.265Z,5.75
2023-05-04T23:05:00.443Z,5.05
2023-05-04T23:07:45.781Z,4.60
2023-05-04T23:10:31.219Z,5.80
2023-05-04T23:13:16.822Z,5.53
2023-05-04T23:16:02.498Z,5.05
2023-05-04T23:18:48.690Z,5.50
2023-05-04T23:21:34.290Z,5.03
2023-05-04T23:24:19.563Z,5.03
2023-05-04T23:27:05.128Z,4.13
2023-05-04T23:29:50.401Z,4.10
2023-05-04T23:32:35.678Z,4.25
2023-05-04T23:35:21.314Z,3.42
2023-05-04T23:38:06.503Z,4.07
2023-05-04T23:40:52.385Z,4.38
2023-05-04T23:43:38.209Z,3.55
2023-05-04T23:46:23.515Z,3.80
2023-05-04T23:49:08.954Z,4.00
2023-05-04T23:51:54.258Z,3.70
2023-05-04T23:54:58.640Z,3.83
2023-05-04T23:57:44.340Z,3.65
